createdAt,value
2019-05-09T00:00:43.857Z,1.97
2019-05-09T00:03:13.825Z,1.67
2019-05-09T00:05:44.093Z,1.73
2019-05-09T00:08:13.958Z,1.60
2019-05-09T00:10:45.032Z,1.60
2019-05-09T00:13:13.738Z,1.47
2019-05-09T00:15:43.732Z,1.30
2019-05-09T00:18:14.274Z,1.30
2019-05-09T00:20:50.025Z,2.20
2019-05-09T00:23:18.564Z,2.03
2019-05-09T00:25:47.025Z,1.87
2019-05-09T00:28:15.475Z,1.63
2019-05-09T00:33:30.251Z,1.77
2019-05-09T00:36:00.267Z,1.80
2019-05-09T00:38:30.424Z,1.60
2019-05-09T00:40:59.226Z,2.10
2019-05-09T00:43:28.036Z,1.87
2019-05-09T00:46:00.841Z,1.50
2019-05-09T00:48:44.433Z,1.50
2019-05-09T00:51:14.045Z,1.57
2019-05-09T00:53:44.411Z,1.40
2019-05-09T00:56:13.498Z,1.50
2019-05-09T00:58:44.050Z,1.33
2019-05-09T01:01:13.659Z,1.50
2019-05-09T01:03:43.250Z,1.57
2019-05-09T01:06:13.408Z,1.50
2019-05-09T01:08:44.090Z,1.37
2019-05-09T01:11:15.469Z,1.13
2019-05-09T01:13:43.443Z,1.30
2019-05-09T01:16:13.412Z,1.23
2019-05-09T01:18:43.699Z,2.23
2019-05-09T01:21:13.397Z,1.17
2019-05-09T01:23:43.609Z,1.20
2019-05-09T01:26:13.237Z,1.40
2019-05-09T01:28:44.082Z,1.10
2019-05-09T01:31:13.259Z,1.00
2019-05-09T01:33:49.310Z,1.37
2019-05-09T01:36:17.901Z,1.00
2019-05-09T01:38:46.396Z,1.00
2019-05-09T01:41:26.743Z,1.00
2019-05-09T01:43:46.739Z,1.00
2019-05-09T01:46:15.191Z,1.10
2019-05-09T01:48:43.750Z,1.20
2019-05-09T01:51:13.912Z,1.50
2019-05-09T01:53:46.724Z,0.90
2019-05-09T01:56:15.249Z,1.10
2019-05-09T01:58:43.780Z,1.13
2019-05-09T02:01:13.428Z,1.20
2019-05-09T02:03:44.321Z,1.10
2019-05-09T02:06:33.311Z,1.00
2019-05-09T02:09:03.556Z,1.00
2019-05-09T02:11:41.691Z,0.90
2019-05-09T02:14:04.131Z,1.30
2019-05-09T02:16:37.105Z,1.00
2019-05-09T02:19:13.687Z,1.37
2019-05-09T02:21:43.713Z,1.20
2019-05-09T02:24:14.034Z,1.10
2019-05-09T02:26:43.938Z,1.10
2019-05-09T02:29:33.778Z,0.93
2019-05-09T02:32:04.528Z,1.00
2019-05-09T02:34:35.495Z,1.10
2019-05-09T02:37:02.895Z,1.20
2019-05-09T02:39:31.373Z,1.10
2019-05-09T02:42:08.676Z,1.13
2019-05-09T02:44:30.069Z,1.00
2019-05-09T02:47:02.866Z,1.10
2019-05-09T02:49:31.386Z,1.10
2019-05-09T02:51:59.915Z,1.00
2019-05-09T02:54:29.808Z,1.20
2019-05-09T02:56:58.627Z,1.10
2019-05-09T02:59:29.816Z,1.00
2019-05-09T03:02:02.978Z,0.80
2019-05-09T03:04:31.503Z,1.07
2019-05-09T03:07:00.122Z,1.10
2019-05-09T03:09:28.947Z,1.07
2019-05-09T03:11:59.051Z,1.10
2019-05-09T03:14:28.863Z,1.17
2019-05-09T03:16:58.683Z,1.50
2019-05-09T03:19:29.686Z,1.13
2019-05-09T03:22:19.060Z,1.20
2019-05-09T03:24:48.596Z,1.30
2019-05-09T03:27:18.995Z,0.90
2019-05-09T03:29:52.115Z,1.10
2019-05-09T03:32:20.646Z,1.30
2019-05-09T03:34:49.161Z,1.10
2019-05-09T03:37:17.825Z,1.30
2019-05-09T03:39:47.804Z,1.10
2019-05-09T03:42:21.240Z,1.27
2019-05-09T03:44:47.720Z,1.10
2019-05-09T03:47:17.987Z,1.30
2019-05-09T03:49:48.107Z,1.20
2019-05-09T03:52:17.756Z,1.03
2019-05-09T03:54:47.724Z,1.00
2019-05-09T03:57:18.061Z,1.20
2019-05-09T03:59:48.103Z,1.30
2019-05-09T04:02:38.276Z,1.50
2019-05-09T04:05:08.098Z,1.10
2019-05-09T04:07:38.390Z,1.10
2019-05-09T04:10:07.827Z,0.90
2019-05-09T04:12:59.343Z,0.90
2019-05-09T04:15:27.485Z,1.33
2019-05-09T04:17:57.893Z,1.10
2019-05-09T04:20:27.689Z,1.20
2019-05-09T04:22:59.341Z,1.23
2019-05-09T04:25:28.184Z,1.20
2019-05-09T04:27:58.338Z,1.10
2019-05-09T04:30:27.422Z,0.87
2019-05-09T04:32:58.018Z,1.10
2019-05-09T04:35:27.997Z,1.10
2019-05-09T04:37:58.367Z,0.93
2019-05-09T04:40:31.635Z,1.10
2019-05-09T04:43:08.899Z,1.00
2019-05-09T04:45:40.216Z,1.10
2019-05-09T04:48:04.906Z,1.13
2019-05-09T04:50:33.363Z,1.10
2019-05-09T04:53:01.832Z,1.30
2019-05-09T04:55:31.954Z,1.30
2019-05-09T04:58:00.433Z,1.30
2019-05-09T05:00:47.993Z,1.47
2019-05-09T05:03:18.330Z,1.33
2019-05-09T05:05:48.170Z,1.10
2019-05-09T05:08:18.110Z,1.73
2019-05-09T05:10:47.772Z,1.60
2019-05-09T05:13:25.774Z,1.37
2019-05-09T05:15:47.510Z,1.50
2019-05-09T05:18:17.375Z,1.50
2019-05-09T05:20:48.135Z,1.50
2019-05-09T05:23:18.303Z,1.70
2019-05-09T05:25:47.544Z,1.67
2019-05-09T05:28:17.650Z,1.73
2019-05-09T05:30:47.729Z,1.53
2019-05-09T05:33:30.136Z,1.40
2019-05-09T05:36:00.372Z,2.03
2019-05-09T05:38:29.678Z,1.50
2019-05-09T05:40:58.151Z,1.63
2019-05-09T05:43:38.560Z,2.27
2019-05-09T05:45:58.548Z,1.77
2019-05-09T05:48:35.209Z,2.00
2019-05-09T05:51:03.679Z,2.37
2019-05-09T05:53:32.164Z,1.97
2019-05-09T05:56:00.904Z,2.10
2019-05-09T05:58:29.408Z,1.83
2019-05-09T06:00:58.852Z,2.33
2019-05-09T06:03:28.347Z,2.50
2019-05-09T06:05:58.490Z,2.50
2019-05-09T06:08:27.631Z,2.60
2019-05-09T06:10:57.622Z,1.80
2019-05-09T06:13:27.550Z,1.93
2019-05-09T06:15:58.460Z,1.80
2019-05-09T06:18:27.602Z,2.57
2019-05-09T06:20:58.299Z,2.10
2019-05-09T06:23:28.267Z,2.00
2019-05-09T06:25:58.835Z,2.10
2019-05-09T06:28:27.504Z,2.10
2019-05-09T06:30:58.325Z,1.70
2019-05-09T06:33:28.428Z,2.20
2019-05-09T06:35:58.674Z,1.60
2019-05-09T06:38:28.203Z,2.00
2019-05-09T06:40:58.113Z,2.00
2019-05-09T06:43:29.114Z,1.83
2019-05-09T06:46:08.339Z,1.63
2019-05-09T06:48:38.549Z,1.67
2019-05-09T06:51:07.413Z,1.50
2019-05-09T06:53:38.019Z,1.50
2019-05-09T06:56:07.403Z,2.10
2019-05-09T06:58:38.326Z,1.83
2019-05-09T07:01:08.911Z,1.43
2019-05-09T07:03:39.023Z,1.60
2019-05-09T07:06:28.171Z,2.27
2019-05-09T07:09:09.649Z,1.70
2019-05-09T07:11:38.310Z,1.63
2019-05-09T07:14:08.533Z,1.63
2019-05-09T07:16:37.645Z,1.97
2019-05-09T07:19:07.960Z,1.30
2019-05-09T07:21:54.499Z,1.60
2019-05-09T07:24:23.508Z,1.30
2019-05-09T07:26:51.968Z,1.50
2019-05-09T07:29:20.428Z,1.60
2019-05-09T07:34:35.100Z,1.20
2019-05-09T07:37:03.645Z,1.37
2019-05-09T07:39:32.107Z,1.83
2019-05-09T07:42:00.596Z,1.50
2019-05-09T07:44:44.250Z,1.50
2019-05-09T07:47:00.894Z,1.40
2019-05-09T07:49:30.031Z,1.77
2019-05-09T07:52:06.147Z,1.33
2019-05-09T07:54:29.428Z,1.10
2019-05-09T07:56:58.324Z,1.50
2019-05-09T07:59:27.436Z,1.40
2019-05-09T08:01:58.202Z,1.50
2019-05-09T08:04:28.644Z,1.30
2019-05-09T08:06:57.674Z,1.60
2019-05-09T08:09:28.168Z,1.23
2019-05-09T08:12:17.967Z,1.53
2019-05-09T08:14:55.340Z,1.20
2019-05-09T08:17:18.101Z,1.10
2019-05-09T08:19:48.350Z,1.27
2019-05-09T08:22:21.268Z,1.30
2019-05-09T08:25:08.235Z,1.00
2019-05-09T08:27:37.790Z,1.07
2019-05-09T08:30:08.121Z,1.13
2019-05-09T08:32:37.796Z,1.47
2019-05-09T08:35:08.268Z,1.33
2019-05-09T08:37:39.093Z,1.07
2019-05-09T08:40:08.223Z,1.23
2019-05-09T08:42:37.862Z,1.70
2019-05-09T08:45:17.422Z,1.50
2019-05-09T08:47:38.061Z,1.07
2019-05-09T08:50:22.084Z,1.27
2019-05-09T08:52:50.578Z,1.30
2019-05-09T08:55:19.028Z,1.20
2019-05-09T08:57:48.158Z,0.93
2019-05-09T09:00:18.943Z,1.43
2019-05-09T09:02:48.284Z,1.40
2019-05-09T09:05:19.992Z,1.47
2019-05-09T09:07:49.266Z,1.20
2019-05-09T09:10:18.810Z,1.10
2019-05-09T09:12:47.865Z,1.03
2019-05-09T09:15:18.020Z,1.37
2019-05-09T09:17:49.121Z,1.57
2019-05-09T09:20:18.226Z,1.60
2019-05-09T09:22:48.027Z,1.00
2019-05-09T09:25:18.370Z,1.10
2019-05-09T09:27:50.740Z,1.30
2019-05-09T09:30:24.792Z,1.43
2019-05-09T09:32:48.135Z,1.30
2019-05-09T09:35:18.761Z,0.80
2019-05-09T09:37:51.408Z,1.20
2019-05-09T09:40:17.838Z,1.60
2019-05-09T09:42:48.797Z,1.53
2019-05-09T09:45:18.330Z,1.00
2019-05-09T09:47:48.244Z,1.50
2019-05-09T09:50:17.812Z,0.93
2019-05-09T09:52:49.030Z,0.80
2019-05-09T09:55:18.505Z,1.20
2019-05-09T09:58:08.225Z,0.90
2019-05-09T10:00:43.894Z,1.47
2019-05-09T10:03:12.416Z,1.30
2019-05-09T10:05:40.953Z,1.00
2019-05-09T10:08:13.885Z,1.93
2019-05-09T10:10:39.794Z,1.47
2019-05-09T10:13:10.768Z,1.50
2019-05-09T10:15:43.012Z,1.23
2019-05-09T10:18:18.096Z,0.90
2019-05-09T10:20:50.443Z,1.03
2019-05-09T10:23:21.643Z,1.00
2019-05-09T10:25:49.088Z,1.00
2019-05-09T10:28:21.325Z,1.30
2019-05-09T10:30:48.509Z,0.97
2019-05-09T10:33:17.638Z,0.90
2019-05-09T10:35:47.904Z,1.20
2019-05-09T10:38:18.461Z,0.90
2019-05-09T10:40:48.496Z,0.80
2019-05-09T10:43:38.794Z,0.90
2019-05-09T10:46:19.204Z,1.10
2019-05-09T10:48:53.018Z,0.88
2019-05-09T10:51:21.509Z,0.93
2019-05-09T10:53:49.969Z,1.20
2019-05-09T10:56:18.881Z,1.05
2019-05-09T10:58:48.320Z,0.80
2019-05-09T11:01:18.490Z,1.00
2019-05-09T11:03:48.293Z,0.82
2019-05-09T11:06:18.336Z,1.27
2019-05-09T11:08:47.885Z,0.87
2019-05-09T11:11:18.225Z,0.80
2019-05-09T11:13:48.232Z,0.90
2019-05-09T11:16:18.391Z,0.70
2019-05-09T11:18:48.460Z,0.90
2019-05-09T11:21:19.180Z,0.82
2019-05-09T11:23:48.972Z,0.82
2019-05-09T11:26:18.112Z,0.95
2019-05-09T11:28:46.833Z,1.05
2019-05-09T11:31:17.994Z,0.90
2019-05-09T11:33:48.130Z,0.80
2019-05-09T11:36:20.805Z,0.90
2019-05-09T11:38:49.102Z,1.30
2019-05-09T11:41:18.873Z,0.90
2019-05-09T11:43:48.541Z,1.10
2019-05-09T11:46:18.046Z,0.90
2019-05-09T11:48:47.036Z,0.70
2019-05-09T11:51:20.511Z,1.02
2019-05-09T11:53:48.351Z,0.90
2019-05-09T11:56:17.957Z,0.90
2019-05-09T11:58:48.074Z,1.00
2019-05-09T12:01:18.946Z,0.80
2019-05-09T12:03:49.881Z,1.02
2019-05-09T12:06:19.965Z,1.30
2019-05-09T12:08:48.344Z,0.90
2019-05-09T12:11:18.178Z,1.07
2019-05-09T12:13:48.579Z,1.20
2019-05-09T12:16:18.507Z,1.22
2019-05-09T12:18:48.832Z,1.52
2019-05-09T12:21:19.096Z,1.00
2019-05-09T12:23:48.835Z,1.07
2019-05-09T12:26:17.948Z,1.00
2019-05-09T12:28:48.320Z,1.30
2019-05-09T12:31:18.200Z,0.80
2019-05-09T12:33:48.250Z,1.60
2019-05-09T12:36:19.328Z,1.10
2019-05-09T12:38:49.932Z,1.30
2019-05-09T12:41:19.200Z,1.70
2019-05-09T12:43:48.136Z,1.60
2019-05-09T12:46:16.692Z,1.40
2019-05-09T12:48:47.883Z,1.60
2019-05-09T12:51:18.384Z,1.60
2019-05-09T12:53:48.542Z,1.70
2019-05-09T12:56:20.390Z,1.40
2019-05-09T12:58:48.967Z,1.17
2019-05-09T13:01:18.800Z,1.30
2019-05-09T13:03:48.395Z,1.77
2019-05-09T13:06:20.047Z,1.00
2019-05-09T13:08:48.103Z,1.00
2019-05-09T13:11:19.006Z,0.90
2019-05-09T13:13:47.989Z,1.17
2019-05-09T13:16:47.491Z,0.90
2019-05-09T13:19:08.164Z,1.02
2019-05-09T13:21:38.903Z,1.15
2019-05-09T13:24:08.358Z,1.02
2019-05-09T13:26:38.474Z,1.20
2019-05-09T13:29:08.074Z,1.22
2019-05-09T13:31:39.142Z,1.22
2019-05-09T13:34:08.143Z,1.50
2019-05-09T13:36:36.916Z,1.10
2019-05-09T13:39:27.838Z,1.10
2019-05-09T13:41:58.227Z,0.88
2019-05-09T13:44:27.753Z,0.80
2019-05-09T13:46:58.432Z,0.90
2019-05-09T13:49:28.569Z,0.50
2019-05-09T13:52:01.239Z,0.82
2019-05-09T13:54:28.491Z,0.80
2019-05-09T13:57:00.934Z,0.70
2019-05-09T13:59:30.002Z,0.98
2019-05-09T14:01:58.138Z,1.35
2019-05-09T14:04:28.603Z,1.30
2019-05-09T14:06:57.220Z,1.10
2019-05-09T14:09:28.844Z,0.95
2019-05-09T14:11:58.611Z,1.20
2019-05-09T14:14:28.128Z,1.10
2019-05-09T14:16:58.989Z,1.32
2019-05-09T14:19:39.687Z,1.30
2019-05-09T14:21:58.602Z,1.27
2019-05-09T14:24:27.903Z,0.90
2019-05-09T14:26:58.226Z,1.47
2019-05-09T14:29:31.422Z,1.62
2019-05-09T14:31:57.217Z,1.07
2019-05-09T14:34:25.716Z,1.17
2019-05-09T14:36:54.198Z,1.80
2019-05-09T14:39:22.975Z,1.40
2019-05-09T14:41:53.154Z,1.83
2019-05-09T14:44:21.605Z,1.87
2019-05-09T14:46:50.103Z,2.47
2019-05-09T14:49:18.734Z,1.98
2019-05-09T14:51:49.779Z,2.00
2019-05-09T14:54:17.633Z,2.12
2019-05-09T14:56:48.400Z,1.53
2019-05-09T14:59:18.452Z,1.30
2019-05-09T15:01:49.297Z,1.52
2019-05-09T15:04:18.862Z,1.37
2019-05-09T15:06:48.824Z,2.05
2019-05-09T15:09:18.220Z,2.17
2019-05-09T15:11:48.383Z,1.63
2019-05-09T15:14:18.138Z,1.50
2019-05-09T15:16:48.488Z,1.77
2019-05-09T15:19:18.051Z,1.52
2019-05-09T15:21:48.716Z,1.40
2019-05-09T15:24:19.241Z,1.62
2019-05-09T15:26:48.890Z,1.80
2019-05-09T15:29:17.495Z,2.30
2019-05-09T15:31:52.929Z,1.65
2019-05-09T15:34:18.483Z,1.35
2019-05-09T15:36:48.346Z,1.72
2019-05-09T15:39:18.386Z,2.17
2019-05-09T15:41:47.881Z,2.00
2019-05-09T15:44:18.615Z,2.02
2019-05-09T15:46:48.413Z,1.62
2019-05-09T15:49:18.324Z,2.00
2019-05-09T15:51:47.800Z,1.85
2019-05-09T15:54:17.798Z,2.33
2019-05-09T15:56:48.349Z,1.70
2019-05-09T15:59:18.192Z,2.08
2019-05-09T16:01:49.160Z,2.10
2019-05-09T16:04:17.815Z,2.62
2019-05-09T16:06:50.303Z,1.82
2019-05-09T16:09:17.994Z,1.87
2019-05-09T16:11:48.393Z,2.30
2019-05-09T16:14:18.497Z,2.67
2019-05-09T16:16:47.894Z,1.22
2019-05-09T16:19:16.631Z,2.15
2019-05-09T16:21:47.547Z,2.55
2019-05-09T16:24:18.498Z,3.75
2019-05-09T16:26:48.536Z,2.03
2019-05-09T16:29:17.827Z,1.40
2019-05-09T16:31:48.139Z,1.80
2019-05-09T16:34:17.742Z,1.52
2019-05-09T16:36:48.054Z,1.80
2019-05-09T16:39:17.967Z,1.40
2019-05-09T16:41:48.498Z,1.30
2019-05-09T16:44:18.297Z,1.17
2019-05-09T16:46:48.375Z,1.32
2019-05-09T16:49:19.697Z,1.20
2019-05-09T16:51:48.524Z,1.00
2019-05-09T16:54:18.033Z,1.60
2019-05-09T16:56:46.869Z,2.50
2019-05-09T16:59:17.751Z,2.80
2019-05-09T17:01:49.296Z,2.60
2019-05-09T17:04:18.891Z,2.67
2019-05-09T17:06:45.998Z,2.05
2019-05-09T17:09:14.554Z,2.70
2019-05-09T17:11:43.028Z,2.40
2019-05-09T17:14:11.508Z,2.70
2019-05-09T17:16:40.056Z,2.92
2019-05-09T17:19:08.580Z,3.02
2019-05-09T17:21:44.835Z,3.75
2019-05-09T17:24:15.003Z,3.15
2019-05-09T17:26:43.468Z,4.70
2019-05-09T17:29:12.011Z,4.42
2019-05-09T17:31:40.520Z,6.33
2019-05-09T17:34:09.087Z,8.43
2019-05-09T17:36:38.513Z,8.05
2019-05-09T17:39:08.068Z,8.10
2019-05-09T17:41:37.960Z,7.67
2019-05-09T17:44:07.643Z,7.50
2019-05-09T17:46:38.499Z,7.22
2019-05-09T17:49:08.291Z,7.85
2019-05-09T17:51:37.106Z,8.10
2019-05-09T17:54:08.099Z,6.70
2019-05-09T17:56:37.946Z,6.90
2019-05-09T17:59:25.626Z,8.28
2019-05-09T18:01:54.208Z,7.35
2019-05-09T18:04:22.787Z,7.75
2019-05-09T18:06:51.302Z,5.65
2019-05-09T18:09:19.843Z,6.87
2019-05-09T18:11:48.444Z,9.00
2019-05-09T18:14:18.509Z,8.58
2019-05-09T18:16:47.929Z,8.08
2019-05-09T18:19:17.833Z,9.18
2019-05-09T18:21:50.994Z,6.53
2019-05-09T18:24:17.626Z,5.47
2019-05-09T18:26:47.439Z,5.57
2019-05-09T18:29:18.158Z,5.65
2019-05-09T18:31:53.958Z,5.72
2019-05-09T18:34:22.469Z,4.03
2019-05-09T18:36:51.000Z,4.10
2019-05-09T18:39:20.521Z,4.47
2019-05-09T18:41:49.181Z,2.70
2019-05-09T18:44:18.298Z,3.50
2019-05-09T18:46:48.076Z,2.52
2019-05-09T18:49:16.875Z,3.25
2019-05-09T18:51:45.549Z,3.00
2019-05-09T18:54:14.208Z,2.60
2019-05-09T18:56:42.753Z,3.30
2019-05-09T18:59:11.326Z,3.15
2019-05-09T19:01:39.876Z,3.75
2019-05-09T19:04:08.451Z,3.72
2019-05-09T19:06:39.795Z,4.00
2019-05-09T19:09:07.556Z,3.47
2019-05-09T19:11:36.245Z,4.22
2019-05-09T19:14:06.739Z,4.58
2019-05-09T19:16:39.649Z,5.00
2019-05-09T19:19:15.876Z,5.60
2019-05-09T19:21:46.133Z,5.33
2019-05-09T19:24:14.776Z,5.85
2019-05-09T19:26:43.250Z,6.13
2019-05-09T19:29:11.805Z,5.35
2019-05-09T19:31:40.782Z,6.08
2019-05-09T19:34:09.487Z,6.28
2019-05-09T19:36:38.121Z,6.33
2019-05-09T19:39:08.044Z,6.97
2019-05-09T19:41:37.355Z,5.95
2019-05-09T19:44:05.969Z,6.37
2019-05-09T19:46:34.897Z,6.62
2019-05-09T19:49:03.605Z,6.12
2019-05-09T19:51:32.190Z,6.60
2019-05-09T19:54:00.695Z,5.67
2019-05-09T19:56:29.361Z,5.45
2019-05-09T19:58:57.975Z,5.42
2019-05-09T20:01:26.490Z,4.78
2019-05-09T20:03:55.079Z,4.55
2019-05-09T20:06:23.624Z,4.47
2019-05-09T20:08:52.253Z,4.67
2019-05-09T20:11:25.552Z,4.37
2019-05-09T20:13:58.293Z,4.40
2019-05-09T20:16:29.451Z,4.40
2019-05-09T20:18:58.202Z,4.45
2019-05-09T20:21:27.124Z,4.75
2019-05-09T20:23:55.925Z,3.83
2019-05-09T20:26:24.704Z,4.03
2019-05-09T20:28:53.410Z,4.30
2019-05-09T20:31:21.943Z,4.42
2019-05-09T20:33:50.487Z,4.15
2019-05-09T20:36:19.019Z,3.73
2019-05-09T20:38:47.747Z,4.57
2019-05-09T20:41:16.484Z,3.92
2019-05-09T20:43:45.206Z,4.03
2019-05-09T20:46:13.974Z,3.62
2019-05-09T20:48:42.771Z,4.30
2019-05-09T20:51:11.463Z,4.33
2019-05-09T20:53:40.122Z,4.00
2019-05-09T20:56:08.781Z,3.62
2019-05-09T20:58:37.532Z,3.77
2019-05-09T21:01:06.258Z,3.42
2019-05-09T21:03:35.028Z,3.70
2019-05-09T21:06:03.757Z,4.08
2019-05-09T21:08:32.938Z,4.47
2019-05-09T21:11:01.713Z,4.50
2019-05-09T21:13:30.436Z,3.98
2019-05-09T21:15:59.109Z,3.98
2019-05-09T21:18:27.822Z,3.90
2019-05-09T21:20:56.595Z,4.25
2019-05-09T21:23:25.333Z,4.30
2019-05-09T21:25:55.544Z,4.50
2019-05-09T21:28:24.267Z,4.75
2019-05-09T21:30:53.013Z,4.37
2019-05-09T21:33:21.688Z,3.22
2019-05-09T21:35:50.184Z,4.33
2019-05-09T21:38:18.676Z,4.40
2019-05-09T21:40:47.264Z,4.55
2019-05-09T21:43:15.805Z,4.30
2019-05-09T21:45:44.308Z,4.40
2019-05-09T21:48:12.801Z,4.40
2019-05-09T21:50:41.273Z,4.20
2019-05-09T21:53:09.740Z,4.03
2019-05-09T21:55:38.317Z,3.43
2019-05-09T21:58:06.828Z,3.70
2019-05-09T22:00:38.725Z,4.13
2019-05-09T22:03:07.841Z,3.30
2019-05-09T22:05:36.942Z,3.70
2019-05-09T22:08:05.592Z,3.93
2019-05-09T22:10:34.786Z,3.10
2019-05-09T22:13:03.345Z,3.57
2019-05-09T22:15:32.065Z,2.83
2019-05-09T22:18:00.586Z,3.00
2019-05-09T22:20:29.194Z,3.27
2019-05-09T22:22:57.678Z,3.12
2019-05-09T22:25:26.666Z,2.67
2019-05-09T22:27:55.415Z,3.17
2019-05-09T22:30:24.121Z,3.70
2019-05-09T22:32:52.663Z,3.13
2019-05-09T22:35:21.294Z,3.00
2019-05-09T22:37:49.832Z,3.37
2019-05-09T22:40:18.525Z,3.80
2019-05-09T22:42:47.085Z,3.63
2019-05-09T22:45:15.997Z,3.92
2019-05-09T22:47:44.568Z,3.97
2019-05-09T22:50:13.412Z,3.40
2019-05-09T22:52:42.034Z,3.83
2019-05-09T22:55:10.788Z,3.33
2019-05-09T22:57:39.346Z,3.73
2019-05-09T23:00:08.657Z,3.40
2019-05-09T23:02:37.365Z,3.43
2019-05-09T23:05:06.572Z,3.80
2019-05-09T23:07:35.212Z,3.37
2019-05-09T23:10:06.126Z,3.33
2019-05-09T23:12:34.775Z,3.43
2019-05-09T23:15:03.381Z,3.63
2019-05-09T23:17:31.927Z,2.87
2019-05-09T23:20:00.606Z,3.47
2019-05-09T23:22:30.764Z,3.33
2019-05-09T23:24:59.332Z,3.37
2019-05-09T23:27:27.952Z,3.60
2019-05-09T23:29:56.494Z,3.47
2019-05-09T23:32:26.700Z,4.13
2019-05-09T23:34:55.240Z,2.73
2019-05-09T23:37:23.784Z,3.33
2019-05-09T23:39:54.012Z,3.30
2019-05-09T23:42:22.606Z,3.17
2019-05-09T23:44:51.165Z,3.60
2019-05-09T23:47:19.679Z,3.30
2019-05-09T23:49:48.290Z,3.40
2019-05-09T23:52:16.872Z,3.47
2019-05-09T23:55:03.278Z,3.40
2019-05-09T23:57:49.957Z,3.20
